Wednesday, April 25, 2018, 12:16 PM GMT
Back to Local

CYYB, North Bay, Ont.

Location: , , Canada Lat: 46.35
Local Time: 12:16 PM GMT (12:16 GMT) Lon: -79.433
Time Zone: GMT Elev: 1174 ft

Show me the last for .
Show Decoded

2018-04-25 12:00 METAR CYYB 251200Z 02011G16KT 10SM -RA FEW004 OVC023 02/02 A2993 RMK SF1SC7
                 SLP147 =
2018-04-25 11:00 METAR CYYB 251100Z 02009G15KT 8SM -RA FEW004 BKN017 OVC023 02/02 A2993 RMK
                 SF1SC5SC2 SLP146 =
2018-04-25 10:18 METAR CYYB 251018Z AUTO 01010KT 330V030 7SM -RA SCT004 OVC023 03/03 A2993 RMK
                 SLP146 =
2018-04-25 10:00 METAR CYYB 251000Z AUTO 36009G15KT 7SM -RA BKN004 OVC025 04/04 A2993 RMK SLP145
                 =
2018-04-25 09:58 METAR CYYB 250958Z AUTO 36009G15KT 6SM -RA BR BKN004 OVC025 04/04 A2992 RMK
                 SLP144 =
2018-04-25 09:21 METAR CYYB 250921Z AUTO 36007KT 3SM RA BR BKN004 OVC010 06/06 A2993 RMK SLP145 =
2018-04-25 09:17 METAR CYYB 250917Z AUTO 35007KT 2SM RA BR BKN004 OVC010 06/06 A2993 RMK VIS VRB
                 1-3 SLP146 =
2018-04-25 09:09 METAR CYYB 250909Z AUTO 32010KT 280V350 1/2SM R08/2600VP6000FT/ RA FG OVC004
                 06/06 A2993 RMK SLP145 =
2018-04-25 09:00 METAR CYYB 250900Z AUTO 32004KT 280V010 1/4SM R08/2000FT/U -RA FG VV004 06/06
                 A2993 RMK SLP145 =
2018-04-25 08:00 METAR CYYB 250800Z AUTO 22005KT 1/4SM R08/2000FT/N -RA FG VV003 06/06 A2994 RMK
                 SLP148 =
2018-04-25 07:28 METAR CYYB 250728Z AUTO 20005KT 3/8SM R08/2600FT/N -RA FG OVC003 06/06 A2995 RMK
                 SLP151 =
2018-04-25 07:19 METAR CYYB 250719Z AUTO 20006KT 1/2SM R08/3500VP6000FT/ -RA FG OVC003 07/07
                 A2995 RMK SLP152 =
2018-04-25 07:00 METAR CYYB 250700Z AUTO 18004KT 1/4SM R08/2800V6000FT/ -RA FG VV003 07/07 A2995
                 RMK SLP153 =
2018-04-25 06:13 METAR CYYB 250613Z AUTO 18005KT 1/4SM R08/2800V4500FT/ -RA FG BKN004 OVC019
                 06/06 A2997 RMK SLP158 =
2018-04-25 06:11 METAR CYYB 250611Z AUTO 18004KT 1/4SM R08/3000V5000FT/ -RA FG BKN006 OVC019
                 06/06 A2997 RMK SLP158 =
2018-04-25 06:00 METAR CYYB 250600Z AUTO 20003KT 1/4SM R08/P6000FT/D -RA FG OVC019 06/06 A2997
                 RMK PCPN 1.2MM PAST HR SLP160 =
2018-04-25 05:25 METAR CYYB 250525Z AUTO 20004KT 3/8SM R08/P6000FT/D -RA FG FEW004 SCT009 OVC014
                 06/06 A2998 RMK SLP163 =
2018-04-25 05:18 METAR CYYB 250518Z AUTO 21003KT 1 1/2SM RA BR SCT009 BKN014 OVC019 07/07 A2999
                 RMK SLP163 =
2018-04-25 05:16 METAR CYYB 250516Z AUTO 22005KT 2 1/2SM RA BR SCT009 BKN014 OVC019 07/07 A2999
                 RMK SLP163 =
2018-04-25 05:13 METAR CYYB 250513Z AUTO 23006KT 4SM RA BR SCT009 BKN014 OVC019 07/07 A2999 RMK
                 SLP163 =
2018-04-25 05:05 METAR CYYB 250505Z AUTO 23005KT 5SM RA BR BKN009 OVC016 07/07 A2999 RMK SLP164 =
2018-04-25 05:00 METAR CYYB 250500Z AUTO 23005KT 5SM -RA BR SCT009 BKN016 OVC025 07/07 A2999 RMK
                 SLP165 =
2018-04-25 04:59 METAR CYYB 250459Z AUTO 23005KT 5SM -RA BR FEW009 BKN016 OVC025 07/07 A2999 RMK
                 SLP165 =
2018-04-25 04:36 METAR CYYB 250436Z AUTO 24004KT 9SM -RA SCT009 BKN016 BKN026 OVC055 08/07 A2999
                 RMK SLP166 =
2018-04-25 04:23 METAR CYYB 250423Z AUTO 24005KT 9SM -RA BKN009 BKN041 OVC055 08/07 A2999 RMK
                 SLP167 =
2018-04-25 04:00 METAR CYYB 250400Z AUTO 26005KT 9SM -RA SCT039 BKN046 BKN055 OVC070 08/07 A3000
                 RMK SLP168 =
2018-04-25 03:59 METAR CYYB 250359Z AUTO 26005KT 9SM -RA BKN041 BKN050 OVC070 08/07 A3000 RMK
                 SLP168 =
2018-04-25 03:57 METAR CYYB 250357Z AUTO 26006KT 9SM BKN041 BKN050 OVC070 08/06 A3000 RMK SLP168
                 =
2018-04-25 03:47 METAR CYYB 250347Z AUTO 25006KT 9SM -RA SCT044 SCT055 OVC069 08/06 A3000 RMK
                 SLP169 =
2018-04-25 03:42 METAR CYYB 250342Z AUTO 25007KT 9SM SCT044 BKN049 OVC070 08/06 A3000 RMK SLP169
                 =
2018-04-25 03:00 METAR CYYB 250300Z AUTO 24005KT 9SM -RA OVC070 07/06 A3000 RMK SLP170 =
2018-04-25 02:00 METAR CYYB 250200Z 26003KT 15SM OVC070 08/06 A3001 RMK AC8 LAST STFD OBS/NEXT
                 251100 UTC SLP173 =
2018-04-25 01:00 METAR CYYB 250100Z 24006KT 15SM OVC075 09/05 A3002 RMK AC8 SLP176 =
2018-04-25 00:49 METAR CYYB 250049Z 23007KT 15SM OVC080 09/04 A3002 RMK AC8 SLP176 =
2018-04-25 00:00 METAR CYYB 250000Z 22006KT 15SM -SHRA SCT050 OVC090 09/03 A3002 RMK CU4AC4
                 SLP176 =
2018-04-24 23:39 METAR CYYB 242339Z 23007KT 15SM -SHRA BKN050 OVC095 10/03 A3002 RMK CU5AC3
                 SLP181 =
2018-04-24 23:00 METAR CYYB 242300Z 23006KT 20SM FEW040 BKN075 OVC110 11/01 A3002 RMK CU1AC4AC3
                 SLP179 =
2018-04-24 22:00 METAR CYYB 242200Z 21009G15KT 20SM FEW040 OVC095 11/01 A3003 RMK CU1AC7 SH SE
                 SLP179 =
2018-04-24 21:00 METAR CYYB 242100Z CCA 21012KT 20SM FEW050 BKN095 OVC260 12/01 A3004 RMK
                 CU1AC5CI2 SH SE SLP181 =
2018-04-24 20:00 METAR CYYB 242000Z 21005KT 30SM OVC100 14/M00 A3005 RMK AC8 SLP184 DENSITY ALT
                 1300FT =
2018-04-24 19:00 METAR CYYB 241900Z 21003KT 30SM BKN130 OVC280 13/01 A3006 RMK AC5CI3 SLP187 =
2018-04-24 18:00 METAR CYYB 241800Z 14004KT 30SM OVC110 12/M01 A3007 RMK AC8 SLP192 =
2018-04-24 17:00 METAR CYYB 241700Z 15003KT 30SM OVC120 12/M02 A3009 RMK AC8 SLP200 =
2018-04-24 16:00 METAR CYYB 241600Z 19004KT 30SM BKN130 OVC150 11/01 A3012 RMK AC6AC2 SLP210 =
2018-04-24 15:00 METAR CYYB 241500Z 00000KT 30SM BKN150 OVC200 10/M03 A3013 RMK AC6CI2 SLP215 =
2018-04-24 14:00 METAR CYYB 241400Z 22005KT 30SM OVC200 09/M02 A3014 RMK CI8 SLP218 =
2018-04-24 13:00 METAR CYYB 241300Z 00000KT 30SM OVC220 08/M07 A3015 RMK CI8 SLP220 =

Support USWX by starting your Amazon purchase here.